sensor_id;sensor_type;location;lat;lon;timestamp;P1;durP1;ratioP1;P2;durP2;ratioP2
46086;SDS011;31824;49.648;8.640;2024-03-02T00:01:25;4.20;;;1.25;;
46086;SDS011;31824;49.648;8.640;2024-03-02T00:04:27;7.13;;;2.10;;
46086;SDS011;31824;49.648;8.640;2024-03-02T00:07:29;3.42;;;0.98;;
46086;SDS011;31824;49.648;8.640;2024-03-02T00:10:38;3.38;;;1.20;;
46086;SDS011;31824;49.648;8.640;2024-03-02T00:13:43;1.90;;;0.73;;
46086;SDS011;31824;49.648;8.640;2024-03-02T00:16:46;3.38;;;1.13;;
46086;SDS011;31824;49.648;8.640;2024-03-02T00:19:48;2.92;;;0.90;;
46086;SDS011;31824;49.648;8.640;2024-03-02T00:22:50;2.72;;;0.88;;
46086;SDS011;31824;49.648;8.640;2024-03-02T00:25:52;4.20;;;1.48;;
46086;SDS011;31824;49.648;8.640;2024-03-02T00:28:56;2.20;;;0.88;;
46086;SDS011;31824;49.648;8.640;2024-03-02T00:31:59;3.70;;;1.33;;
46086;SDS011;31824;49.648;8.640;2024-03-02T00:35:04;4.90;;;1.20;;
46086;SDS011;31824;49.648;8.640;2024-03-02T00:38:06;3.67;;;1.33;;
46086;SDS011;31824;49.648;8.640;2024-03-02T00:41:08;4.88;;;1.63;;
46086;SDS011;31824;49.648;8.640;2024-03-02T00:44:19;3.65;;;1.50;;
46086;SDS011;31824;49.648;8.640;2024-03-02T00:47:26;5.15;;;1.52;;
46086;SDS011;31824;49.648;8.640;2024-03-02T00:50:28;4.13;;;1.50;;
46086;SDS011;31824;49.648;8.640;2024-03-02T00:53:32;3.47;;;1.33;;
46086;SDS011;31824;49.648;8.640;2024-03-02T00:56:34;3.83;;;1.33;;
46086;SDS011;31824;49.648;8.640;2024-03-02T00:59:38;2.40;;;0.98;;
46086;SDS011;31824;49.648;8.640;2024-03-02T01:02:40;2.92;;;1.20;;
46086;SDS011;31824;49.648;8.640;2024-03-02T01:05:41;5.93;;;2.22;;
46086;SDS011;31824;49.648;8.640;2024-03-02T01:08:44;6.15;;;2.67;;
46086;SDS011;31824;49.648;8.640;2024-03-02T01:11:46;4.90;;;2.28;;
46086;SDS011;31824;49.648;8.640;2024-03-02T01:14:49;5.25;;;2.03;;
46086;SDS011;31824;49.648;8.640;2024-03-02T01:17:51;9.45;;;3.08;;
46086;SDS011;31824;49.648;8.640;2024-03-02T01:20:56;5.03;;;1.95;;
46086;SDS011;31824;49.648;8.640;2024-03-02T01:23:58;5.07;;;2.15;;
46086;SDS011;31824;49.648;8.640;2024-03-02T01:26:59;5.00;;;2.00;;
46086;SDS011;31824;49.648;8.640;2024-03-02T01:30:03;3.83;;;1.20;;
46086;SDS011;31824;49.648;8.640;2024-03-02T01:33:05;4.00;;;1.45;;
46086;SDS011;31824;49.648;8.640;2024-03-02T01:36:08;3.28;;;1.10;;
46086;SDS011;31824;49.648;8.640;2024-03-02T01:39:10;3.22;;;1.33;;
46086;SDS011;31824;49.648;8.640;2024-03-02T01:42:12;3.33;;;1.42;;
46086;SDS011;31824;49.648;8.640;2024-03-02T01:45:15;4.63;;;2.03;;
46086;SDS011;31824;49.648;8.640;2024-03-02T01:48:17;5.70;;;2.15;;
46086;SDS011;31824;49.648;8.640;2024-03-02T01:51:19;2.45;;;1.00;;
46086;SDS011;31824;49.648;8.640;2024-03-02T01:54:21;3.15;;;1.23;;
46086;SDS011;31824;49.648;8.640;2024-03-02T01:57:24;4.57;;;1.50;;
46086;SDS011;31824;49.648;8.640;2024-03-02T02:00:28;2.95;;;0.80;;
46086;SDS011;31824;49.648;8.640;2024-03-02T02:03:30;3.05;;;1.08;;
46086;SDS011;31824;49.648;8.640;2024-03-02T02:06:32;3.40;;;0.80;;
46086;SDS011;31824;49.648;8.640;2024-03-02T02:09:34;0.93;;;0.40;;
46086;SDS011;31824;49.648;8.640;2024-03-02T02:12:36;3.20;;;1.00;;
46086;SDS011;31824;49.648;8.640;2024-03-02T02:15:40;4.65;;;0.85;;
46086;SDS011;31824;49.648;8.640;2024-03-02T02:18:42;3.38;;;1.20;;
46086;SDS011;31824;49.648;8.640;2024-03-02T02:21:45;2.10;;;0.80;;
46086;SDS011;31824;49.648;8.640;2024-03-02T02:24:47;3.67;;;1.17;;
46086;SDS011;31824;49.648;8.640;2024-03-02T02:27:49;2.22;;;0.80;;
46086;SDS011;31824;49.648;8.640;2024-03-02T02:30:51;4.63;;;1.50;;
46086;SDS011;31824;49.648;8.640;2024-03-02T02:33:53;4.20;;;1.90;;
46086;SDS011;31824;49.648;8.640;2024-03-02T02:36:56;3.60;;;1.15;;
46086;SDS011;31824;49.648;8.640;2024-03-02T02:39:58;3.13;;;1.20;;
46086;SDS011;31824;49.648;8.640;2024-03-02T02:43:00;1.73;;;0.80;;
46086;SDS011;31824;49.648;8.640;2024-03-02T02:46:02;2.53;;;1.00;;
46086;SDS011;31824;49.648;8.640;2024-03-02T02:49:05;1.92;;;0.93;;
46086;SDS011;31824;49.648;8.640;2024-03-02T02:52:08;3.28;;;1.00;;
46086;SDS011;31824;49.648;8.640;2024-03-02T02:55:10;3.83;;;1.13;;
46086;SDS011;31824;49.648;8.640;2024-03-02T02:58:13;1.80;;;0.90;;
46086;SDS011;31824;49.648;8.640;2024-03-02T03:01:16;2.35;;;0.90;;
46086;SDS011;31824;49.648;8.640;2024-03-02T03:04:20;3.13;;;0.95;;
46086;SDS011;31824;49.648;8.640;2024-03-02T03:07:24;3.30;;;1.20;;
46086;SDS011;31824;49.648;8.640;2024-03-02T03:10:25;4.03;;;1.00;;
46086;SDS011;31824;49.648;8.640;2024-03-02T03:13:29;3.38;;;0.95;;
46086;SDS011;31824;49.648;8.640;2024-03-02T03:16:30;2.78;;;1.10;;
46086;SDS011;31824;49.648;8.640;2024-03-02T03:19:32;2.83;;;0.95;;
46086;SDS011;31824;49.648;8.640;2024-03-02T03:22:35;3.97;;;1.35;;
46086;SDS011;31824;49.648;8.640;2024-03-02T03:25:37;3.13;;;1.20;;
46086;SDS011;31824;49.648;8.640;2024-03-02T03:28:39;3.83;;;1.02;;
46086;SDS011;31824;49.648;8.640;2024-03-02T03:31:41;4.43;;;1.60;;
46086;SDS011;31824;49.648;8.640;2024-03-02T03:34:42;3.22;;;1.30;;
46086;SDS011;31824;49.648;8.640;2024-03-02T03:37:45;4.28;;;1.20;;
46086;SDS011;31824;49.648;8.640;2024-03-02T03:40:47;2.33;;;0.90;;
46086;SDS011;31824;49.648;8.640;2024-03-02T03:43:49;1.70;;;0.82;;
46086;SDS011;31824;49.648;8.640;2024-03-02T03:46:51;2.47;;;0.98;;
46086;SDS011;31824;49.648;8.640;2024-03-02T03:49:52;3.38;;;1.25;;
46086;SDS011;31824;49.648;8.640;2024-03-02T03:52:55;3.05;;;1.08;;
46086;SDS011;31824;49.648;8.640;2024-03-02T03:55:57;4.07;;;1.30;;
46086;SDS011;31824;49.648;8.640;2024-03-02T03:58:59;3.72;;;1.42;;
46086;SDS011;31824;49.648;8.640;2024-03-02T04:02:01;2.97;;;1.60;;
46086;SDS011;31824;49.648;8.640;2024-03-02T04:05:04;4.35;;;1.77;;
46086;SDS011;31824;49.648;8.640;2024-03-02T04:08:11;3.88;;;1.60;;
46086;SDS011;31824;49.648;8.640;2024-03-02T04:11:13;3.88;;;1.60;;
46086;SDS011;31824;49.648;8.640;2024-03-02T04:14:15;5.50;;;1.88;;
46086;SDS011;31824;49.648;8.640;2024-03-02T04:17:16;3.28;;;1.42;;
46086;SDS011;31824;49.648;8.640;2024-03-02T04:20:18;2.88;;;1.38;;
46086;SDS011;31824;49.648;8.640;2024-03-02T04:23:21;4.63;;;1.60;;
46086;SDS011;31824;49.648;8.640;2024-03-02T04:26:23;4.38;;;1.50;;
46086;SDS011;31824;49.648;8.640;2024-03-02T04:29:24;4.18;;;1.70;;
46086;SDS011;31824;49.648;8.640;2024-03-02T04:32:26;3.42;;;1.27;;
46086;SDS011;31824;49.648;8.640;2024-03-02T04:35:28;4.35;;;1.55;;
46086;SDS011;31824;49.648;8.640;2024-03-02T04:38:31;3.58;;;1.70;;
46086;SDS011;31824;49.648;8.640;2024-03-02T04:41:33;3.92;;;1.05;;
46086;SDS011;31824;49.648;8.640;2024-03-02T04:44:35;3.55;;;1.40;;
46086;SDS011;31824;49.648;8.640;2024-03-02T04:47:37;3.78;;;1.35;;
46086;SDS011;31824;49.648;8.640;2024-03-02T04:50:38;3.50;;;1.63;;
46086;SDS011;31824;49.648;8.640;2024-03-02T04:53:42;3.47;;;1.40;;
46086;SDS011;31824;49.648;8.640;2024-03-02T04:56:43;3.42;;;1.35;;
46086;SDS011;31824;49.648;8.640;2024-03-02T04:59:46;3.50;;;1.65;;
46086;SDS011;31824;49.648;8.640;2024-03-02T05:02:48;3.25;;;1.20;;
46086;SDS011;31824;49.648;8.640;2024-03-02T05:05:49;4.15;;;1.40;;
46086;SDS011;31824;49.648;8.640;2024-03-02T05:08:52;2.90;;;1.30;;
46086;SDS011;31824;49.648;8.640;2024-03-02T05:11:54;4.05;;;1.02;;
46086;SDS011;31824;49.648;8.640;2024-03-02T05:15:14;2.65;;;0.93;;
46086;SDS011;31824;49.648;8.640;2024-03-02T05:18:16;4.75;;;1.17;;
46086;SDS011;31824;49.648;8.640;2024-03-02T05:21:18;6.68;;;2.33;;
46086;SDS011;31824;49.648;8.640;2024-03-02T05:24:21;3.60;;;1.45;;
46086;SDS011;31824;49.648;8.640;2024-03-02T05:27:23;7.45;;;2.15;;
46086;SDS011;31824;49.648;8.640;2024-03-02T05:30:25;4.75;;;2.25;;
46086;SDS011;31824;49.648;8.640;2024-03-02T05:33:27;7.07;;;2.28;;
46086;SDS011;31824;49.648;8.640;2024-03-02T05:36:30;8.48;;;2.35;;
46086;SDS011;31824;49.648;8.640;2024-03-02T05:39:33;4.88;;;2.17;;
46086;SDS011;31824;49.648;8.640;2024-03-02T05:42:35;5.68;;;2.47;;
46086;SDS011;31824;49.648;8.640;2024-03-02T05:45:36;6.78;;;2.65;;
46086;SDS011;31824;49.648;8.640;2024-03-02T05:48:38;8.35;;;3.00;;
46086;SDS011;31824;49.648;8.640;2024-03-02T05:51:40;5.90;;;2.78;;
46086;SDS011;31824;49.648;8.640;2024-03-02T05:54:44;6.47;;;3.10;;
46086;SDS011;31824;49.648;8.640;2024-03-02T05:57:46;6.03;;;3.10;;
46086;SDS011;31824;49.648;8.640;2024-03-02T06:01:01;4.88;;;2.50;;
46086;SDS011;31824;49.648;8.640;2024-03-02T06:04:03;5.57;;;2.63;;
46086;SDS011;31824;49.648;8.640;2024-03-02T06:07:05;4.60;;;2.30;;
46086;SDS011;31824;49.648;8.640;2024-03-02T06:10:09;8.57;;;2.30;;
46086;SDS011;31824;49.648;8.640;2024-03-02T06:13:14;6.60;;;2.85;;
46086;SDS011;31824;49.648;8.640;2024-03-02T06:16:16;5.63;;;2.38;;
46086;SDS011;31824;49.648;8.640;2024-03-02T06:19:18;5.45;;;2.20;;
46086;SDS011;31824;49.648;8.640;2024-03-02T06:22:20;7.00;;;2.60;;
46086;SDS011;31824;49.648;8.640;2024-03-02T06:25:24;5.20;;;2.30;;
46086;SDS011;31824;49.648;8.640;2024-03-02T06:28:26;7.72;;;2.53;;
46086;SDS011;31824;49.648;8.640;2024-03-02T06:31:27;7.18;;;2.70;;
46086;SDS011;31824;49.648;8.640;2024-03-02T06:34:29;7.20;;;2.25;;
46086;SDS011;31824;49.648;8.640;2024-03-02T06:37:31;5.65;;;2.13;;
46086;SDS011;31824;49.648;8.640;2024-03-02T06:40:34;5.10;;;2.38;;
46086;SDS011;31824;49.648;8.640;2024-03-02T06:43:36;5.05;;;2.47;;
46086;SDS011;31824;49.648;8.640;2024-03-02T06:46:38;6.63;;;2.53;;
46086;SDS011;31824;49.648;8.640;2024-03-02T06:49:40;5.85;;;2.45;;
46086;SDS011;31824;49.648;8.640;2024-03-02T06:52:42;7.43;;;2.90;;
46086;SDS011;31824;49.648;8.640;2024-03-02T06:55:46;7.95;;;2.90;;
46086;SDS011;31824;49.648;8.640;2024-03-02T06:58:48;6.57;;;3.30;;
46086;SDS011;31824;49.648;8.640;2024-03-02T07:01:50;8.68;;;3.10;;
46086;SDS011;31824;49.648;8.640;2024-03-02T07:04:51;6.72;;;2.97;;
46086;SDS011;31824;49.648;8.640;2024-03-02T07:07:53;6.38;;;2.92;;
46086;SDS011;31824;49.648;8.640;2024-03-02T07:10:56;5.97;;;3.10;;
46086;SDS011;31824;49.648;8.640;2024-03-02T07:13:58;6.60;;;2.97;;
46086;SDS011;31824;49.648;8.640;2024-03-02T07:17:00;5.68;;;2.90;;
46086;SDS011;31824;49.648;8.640;2024-03-02T07:20:02;6.00;;;3.28;;
46086;SDS011;31824;49.648;8.640;2024-03-02T07:23:08;8.90;;;4.28;;
46086;SDS011;31824;49.648;8.640;2024-03-02T07:26:12;10.75;;;4.97;;
46086;SDS011;31824;49.648;8.640;2024-03-02T07:29:16;11.38;;;4.82;;
46086;SDS011;31824;49.648;8.640;2024-03-02T07:32:18;12.52;;;5.90;;
46086;SDS011;31824;49.648;8.640;2024-03-02T07:35:20;11.73;;;6.40;;
46086;SDS011;31824;49.648;8.640;2024-03-02T07:38:23;9.65;;;5.15;;
46086;SDS011;31824;49.648;8.640;2024-03-02T07:41:26;11.20;;;4.60;;
46086;SDS011;31824;49.648;8.640;2024-03-02T07:44:28;13.65;;;4.75;;
46086;SDS011;31824;49.648;8.640;2024-03-02T07:47:30;8.52;;;4.20;;
46086;SDS011;31824;49.648;8.640;2024-03-02T07:50:31;10.23;;;4.45;;
46086;SDS011;31824;49.648;8.640;2024-03-02T07:53:36;13.18;;;5.47;;
46086;SDS011;31824;49.648;8.640;2024-03-02T07:56:39;10.65;;;4.68;;
46086;SDS011;31824;49.648;8.640;2024-03-02T07:59:41;9.90;;;4.13;;
46086;SDS011;31824;49.648;8.640;2024-03-02T08:02:44;11.57;;;4.88;;
46086;SDS011;31824;49.648;8.640;2024-03-02T08:05:46;9.25;;;4.53;;
46086;SDS011;31824;49.648;8.640;2024-03-02T08:08:48;16.20;;;7.22;;
46086;SDS011;31824;49.648;8.640;2024-03-02T08:11:51;20.20;;;9.45;;
46086;SDS011;31824;49.648;8.640;2024-03-02T08:14:53;24.67;;;10.35;;
46086;SDS011;31824;49.648;8.640;2024-03-02T08:17:54;20.83;;;10.40;;
46086;SDS011;31824;49.648;8.640;2024-03-02T08:20:57;14.25;;;7.10;;
46086;SDS011;31824;49.648;8.640;2024-03-02T08:23:59;13.85;;;6.65;;
46086;SDS011;31824;49.648;8.640;2024-03-02T08:27:03;12.35;;;5.55;;
46086;SDS011;31824;49.648;8.640;2024-03-02T08:30:05;13.55;;;5.40;;
46086;SDS011;31824;49.648;8.640;2024-03-02T08:33:09;12.88;;;5.43;;
46086;SDS011;31824;49.648;8.640;2024-03-02T08:36:11;11.15;;;5.35;;
46086;SDS011;31824;49.648;8.640;2024-03-02T08:39:13;12.65;;;5.53;;
46086;SDS011;31824;49.648;8.640;2024-03-02T08:42:19;12.10;;;5.35;;
46086;SDS011;31824;49.648;8.640;2024-03-02T08:45:21;11.48;;;5.68;;
46086;SDS011;31824;49.648;8.640;2024-03-02T08:48:23;13.10;;;5.55;;
46086;SDS011;31824;49.648;8.640;2024-03-02T08:51:25;17.38;;;5.30;;
46086;SDS011;31824;49.648;8.640;2024-03-02T08:54:26;12.00;;;5.10;;
46086;SDS011;31824;49.648;8.640;2024-03-02T08:57:30;13.18;;;5.00;;
46086;SDS011;31824;49.648;8.640;2024-03-02T09:00:33;12.75;;;5.47;;
46086;SDS011;31824;49.648;8.640;2024-03-02T09:03:35;12.38;;;5.38;;
46086;SDS011;31824;49.648;8.640;2024-03-02T09:06:37;11.73;;;5.63;;
46086;SDS011;31824;49.648;8.640;2024-03-02T09:09:39;11.80;;;5.65;;
46086;SDS011;31824;49.648;8.640;2024-03-02T09:12:42;9.38;;;4.63;;
46086;SDS011;31824;49.648;8.640;2024-03-02T09:16:03;12.82;;;5.63;;
46086;SDS011;31824;49.648;8.640;2024-03-02T09:19:06;10.25;;;5.55;;
46086;SDS011;31824;49.648;8.640;2024-03-02T09:22:09;11.75;;;5.75;;
46086;SDS011;31824;49.648;8.640;2024-03-02T09:25:11;10.45;;;5.45;;
46086;SDS011;31824;49.648;8.640;2024-03-02T09:28:14;9.52;;;5.32;;
46086;SDS011;31824;49.648;8.640;2024-03-02T09:31:16;13.20;;;5.47;;
46086;SDS011;31824;49.648;8.640;2024-03-02T09:34:18;10.43;;;4.95;;
46086;SDS011;31824;49.648;8.640;2024-03-02T09:37:20;10.80;;;5.53;;
46086;SDS011;31824;49.648;8.640;2024-03-02T09:40:22;11.88;;;5.75;;
46086;SDS011;31824;49.648;8.640;2024-03-02T09:43:25;11.63;;;5.05;;
46086;SDS011;31824;49.648;8.640;2024-03-02T09:46:27;9.13;;;4.10;;
46086;SDS011;31824;49.648;8.640;2024-03-02T09:49:29;10.60;;;5.03;;
46086;SDS011;31824;49.648;8.640;2024-03-02T09:52:31;8.60;;;4.45;;
46086;SDS011;31824;49.648;8.640;2024-03-02T09:55:34;9.55;;;4.43;;
46086;SDS011;31824;49.648;8.640;2024-03-02T09:58:37;11.15;;;4.60;;
46086;SDS011;31824;49.648;8.640;2024-03-02T10:01:40;11.63;;;5.43;;
46086;SDS011;31824;49.648;8.640;2024-03-02T10:04:56;12.25;;;5.00;;
46086;SDS011;31824;49.648;8.640;2024-03-02T10:07:58;10.68;;;5.20;;
46086;SDS011;31824;49.648;8.640;2024-03-02T10:11:02;11.82;;;5.18;;
46086;SDS011;31824;49.648;8.640;2024-03-02T10:14:06;10.63;;;5.60;;
46086;SDS011;31824;49.648;8.640;2024-03-02T10:17:12;10.07;;;5.10;;
46086;SDS011;31824;49.648;8.640;2024-03-02T10:20:21;12.93;;;5.57;;
46086;SDS011;31824;49.648;8.640;2024-03-02T10:23:24;10.55;;;5.35;;
46086;SDS011;31824;49.648;8.640;2024-03-02T10:26:26;10.95;;;4.93;;
46086;SDS011;31824;49.648;8.640;2024-03-02T10:29:31;10.13;;;4.78;;
46086;SDS011;31824;49.648;8.640;2024-03-02T10:32:33;6.78;;;3.92;;
46086;SDS011;31824;49.648;8.640;2024-03-02T10:35:35;10.20;;;4.70;;
46086;SDS011;31824;49.648;8.640;2024-03-02T10:38:40;8.30;;;3.95;;
46086;SDS011;31824;49.648;8.640;2024-03-02T10:41:42;7.05;;;2.88;;
46086;SDS011;31824;49.648;8.640;2024-03-02T10:44:47;7.30;;;3.70;;
46086;SDS011;31824;49.648;8.640;2024-03-02T10:47:50;7.75;;;3.33;;
46086;SDS011;31824;49.648;8.640;2024-03-02T10:50:53;8.90;;;3.40;;
46086;SDS011;31824;49.648;8.640;2024-03-02T10:53:54;6.28;;;2.88;;
46086;SDS011;31824;49.648;8.640;2024-03-02T10:56:58;3.30;;;1.40;;
46086;SDS011;31824;49.648;8.640;2024-03-02T11:03:05;3.25;;;1.25;;
46086;SDS011;31824;49.648;8.640;2024-03-02T11:06:08;3.80;;;1.25;;
46086;SDS011;31824;49.648;8.640;2024-03-02T11:09:13;3.17;;;1.40;;
46086;SDS011;31824;49.648;8.640;2024-03-02T11:12:18;7.85;;;1.77;;
46086;SDS011;31824;49.648;8.640;2024-03-02T11:15:25;5.78;;;1.92;;
46086;SDS011;31824;49.648;8.640;2024-03-02T11:21:31;4.28;;;1.70;;
46086;SDS011;31824;49.648;8.640;2024-03-02T11:24:34;3.50;;;1.40;;
46086;SDS011;31824;49.648;8.640;2024-03-02T11:31:05;3.95;;;0.88;;
46086;SDS011;31824;49.648;8.640;2024-03-02T11:34:17;1.95;;;0.70;;
46086;SDS011;31824;49.648;8.640;2024-03-02T11:37:20;3.97;;;1.23;;
46086;SDS011;31824;49.648;8.640;2024-03-02T11:40:21;1.27;;;0.40;;
46086;SDS011;31824;49.648;8.640;2024-03-02T11:43:25;2.25;;;0.65;;
46086;SDS011;31824;49.648;8.640;2024-03-02T11:46:29;1.95;;;0.82;;
46086;SDS011;31824;49.648;8.640;2024-03-02T11:49:37;2.63;;;0.80;;
46086;SDS011;31824;49.648;8.640;2024-03-02T11:52:40;2.85;;;0.88;;
46086;SDS011;31824;49.648;8.640;2024-03-02T11:55:43;2.92;;;0.75;;
46086;SDS011;31824;49.648;8.640;2024-03-02T11:58:49;2.30;;;0.65;;
46086;SDS011;31824;49.648;8.640;2024-03-02T12:01:56;3.55;;;1.20;;
46086;SDS011;31824;49.648;8.640;2024-03-02T12:04:59;2.55;;;0.40;;
46086;SDS011;31824;49.648;8.640;2024-03-02T12:08:01;2.63;;;1.00;;
46086;SDS011;31824;49.648;8.640;2024-03-02T12:11:04;2.55;;;0.65;;
46086;SDS011;31824;49.648;8.640;2024-03-02T12:14:10;3.90;;;0.90;;
46086;SDS011;31824;49.648;8.640;2024-03-02T12:17:15;2.42;;;0.60;;
46086;SDS011;31824;49.648;8.640;2024-03-02T12:20:18;2.30;;;0.80;;
46086;SDS011;31824;49.648;8.640;2024-03-02T12:23:20;2.22;;;0.75;;
46086;SDS011;31824;49.648;8.640;2024-03-02T12:26:22;3.08;;;1.20;;
46086;SDS011;31824;49.648;8.640;2024-03-02T12:29:24;2.15;;;0.80;;
46086;SDS011;31824;49.648;8.640;2024-03-02T12:32:28;2.38;;;0.85;;
46086;SDS011;31824;49.648;8.640;2024-03-02T12:35:29;3.88;;;1.05;;
46086;SDS011;31824;49.648;8.640;2024-03-02T12:38:31;3.25;;;1.00;;
46086;SDS011;31824;49.648;8.640;2024-03-02T12:41:33;3.72;;;0.98;;
46086;SDS011;31824;49.648;8.640;2024-03-02T12:44:35;1.73;;;0.60;;
46086;SDS011;31824;49.648;8.640;2024-03-02T12:47:39;2.00;;;0.70;;
46086;SDS011;31824;49.648;8.640;2024-03-02T12:50:41;2.08;;;0.80;;
46086;SDS011;31824;49.648;8.640;2024-03-02T12:53:45;3.55;;;0.98;;
46086;SDS011;31824;49.648;8.640;2024-03-02T12:56:47;3.67;;;1.17;;
46086;SDS011;31824;49.648;8.640;2024-03-02T12:59:50;2.70;;;1.00;;
46086;SDS011;31824;49.648;8.640;2024-03-02T13:02:53;2.28;;;0.80;;
46086;SDS011;31824;49.648;8.640;2024-03-02T13:06:03;1.83;;;0.80;;
46086;SDS011;31824;49.648;8.640;2024-03-02T13:09:06;1.75;;;0.70;;
46086;SDS011;31824;49.648;8.640;2024-03-02T13:12:18;1.80;;;0.68;;
46086;SDS011;31824;49.648;8.640;2024-03-02T13:15:20;2.63;;;0.90;;
46086;SDS011;31824;49.648;8.640;2024-03-02T13:18:24;4.90;;;0.70;;
46086;SDS011;31824;49.648;8.640;2024-03-02T13:21:26;2.63;;;0.90;;
46086;SDS011;31824;49.648;8.640;2024-03-02T13:24:27;2.47;;;0.90;;
46086;SDS011;31824;49.648;8.640;2024-03-02T13:27:32;3.53;;;0.70;;
46086;SDS011;31824;49.648;8.640;2024-03-02T13:30:34;1.67;;;0.73;;
46086;SDS011;31824;49.648;8.640;2024-03-02T13:33:37;2.13;;;0.77;;
46086;SDS011;31824;49.648;8.640;2024-03-02T13:36:39;2.92;;;1.00;;
46086;SDS011;31824;49.648;8.640;2024-03-02T13:39:41;2.53;;;1.00;;
46086;SDS011;31824;49.648;8.640;2024-03-02T13:42:44;2.03;;;0.70;;
46086;SDS011;31824;49.648;8.640;2024-03-02T13:45:46;2.20;;;0.80;;
46086;SDS011;31824;49.648;8.640;2024-03-02T13:48:49;1.55;;;0.68;;
46086;SDS011;31824;49.648;8.640;2024-03-02T13:51:52;2.42;;;0.73;;
46086;SDS011;31824;49.648;8.640;2024-03-02T13:54:54;1.35;;;0.60;;
46086;SDS011;31824;49.648;8.640;2024-03-02T13:57:56;1.50;;;0.57;;
46086;SDS011;31824;49.648;8.640;2024-03-02T14:00:58;1.77;;;0.63;;
46086;SDS011;31824;49.648;8.640;2024-03-02T14:04:01;2.42;;;0.50;;
46086;SDS011;31824;49.648;8.640;2024-03-02T14:07:03;2.85;;;0.60;;
46086;SDS011;31824;49.648;8.640;2024-03-02T14:10:08;1.63;;;0.60;;
46086;SDS011;31824;49.648;8.640;2024-03-02T14:13:11;1.42;;;0.50;;
46086;SDS011;31824;49.648;8.640;2024-03-02T14:16:13;0.95;;;0.43;;
46086;SDS011;31824;49.648;8.640;2024-03-02T14:19:16;1.55;;;0.70;;
46086;SDS011;31824;49.648;8.640;2024-03-02T14:22:18;0.60;;;0.20;;
46086;SDS011;31824;49.648;8.640;2024-03-02T14:25:19;0.45;;;0.13;;
46086;SDS011;31824;49.648;8.640;2024-03-02T14:28:21;0.65;;;0.22;;
46086;SDS011;31824;49.648;8.640;2024-03-02T14:31:26;0.20;;;0.10;;
46086;SDS011;31824;49.648;8.640;2024-03-02T14:34:29;0.80;;;0.20;;
46086;SDS011;31824;49.648;8.640;2024-03-02T14:37:31;0.73;;;0.30;;
46086;SDS011;31824;49.648;8.640;2024-03-02T14:40:33;2.60;;;0.20;;
46086;SDS011;31824;49.648;8.640;2024-03-02T14:43:34;1.80;;;0.40;;
46086;SDS011;31824;49.648;8.640;2024-03-02T14:46:36;0.80;;;0.28;;
46086;SDS011;31824;49.648;8.640;2024-03-02T14:49:40;0.65;;;0.20;;
46086;SDS011;31824;49.648;8.640;2024-03-02T14:52:43;1.55;;;0.38;;
46086;SDS011;31824;49.648;8.640;2024-03-02T14:55:46;0.60;;;0.30;;
46086;SDS011;31824;49.648;8.640;2024-03-02T14:58:48;1.65;;;0.20;;
46086;SDS011;31824;49.648;8.640;2024-03-02T15:01:50;1.00;;;0.20;;
46086;SDS011;31824;49.648;8.640;2024-03-02T15:04:54;0.60;;;0.20;;
46086;SDS011;31824;49.648;8.640;2024-03-02T15:07:56;1.83;;;0.30;;
46086;SDS011;31824;49.648;8.640;2024-03-02T15:11:00;0.77;;;0.30;;
46086;SDS011;31824;49.648;8.640;2024-03-02T15:14:03;1.20;;;0.40;;
46086;SDS011;31824;49.648;8.640;2024-03-02T15:17:05;1.45;;;0.40;;
46086;SDS011;31824;49.648;8.640;2024-03-02T15:20:09;0.93;;;0.32;;
46086;SDS011;31824;49.648;8.640;2024-03-02T15:23:11;1.02;;;0.40;;
46086;SDS011;31824;49.648;8.640;2024-03-02T15:26:13;1.48;;;0.38;;
46086;SDS011;31824;49.648;8.640;2024-03-02T15:29:15;0.45;;;0.20;;
46086;SDS011;31824;49.648;8.640;2024-03-02T15:32:16;0.63;;;0.30;;
46086;SDS011;31824;49.648;8.640;2024-03-02T15:35:20;0.80;;;0.30;;
46086;SDS011;31824;49.648;8.640;2024-03-02T15:38:21;1.00;;;0.28;;
46086;SDS011;31824;49.648;8.640;2024-03-02T15:41:33;1.15;;;0.30;;
46086;SDS011;31824;49.648;8.640;2024-03-02T15:44:35;0.57;;;0.20;;
46086;SDS011;31824;49.648;8.640;2024-03-02T15:47:37;2.42;;;0.40;;
46086;SDS011;31824;49.648;8.640;2024-03-02T15:50:41;0.75;;;0.20;;
46086;SDS011;31824;49.648;8.640;2024-03-02T15:53:43;0.50;;;0.30;;
46086;SDS011;31824;49.648;8.640;2024-03-02T15:56:44;0.93;;;0.30;;
46086;SDS011;31824;49.648;8.640;2024-03-02T15:59:47;1.77;;;0.32;;
46086;SDS011;31824;49.648;8.640;2024-03-02T16:02:48;0.95;;;0.30;;
46086;SDS011;31824;49.648;8.640;2024-03-02T16:05:51;0.82;;;0.30;;
46086;SDS011;31824;49.648;8.640;2024-03-02T16:08:53;1.65;;;0.30;;
46086;SDS011;31824;49.648;8.640;2024-03-02T16:11:57;0.63;;;0.28;;
46086;SDS011;31824;49.648;8.640;2024-03-02T16:14:59;1.48;;;0.30;;
46086;SDS011;31824;49.648;8.640;2024-03-02T16:18:00;1.08;;;0.25;;
46086;SDS011;31824;49.648;8.640;2024-03-02T16:21:05;1.13;;;0.40;;
46086;SDS011;31824;49.648;8.640;2024-03-02T16:24:07;1.95;;;0.50;;
46086;SDS011;31824;49.648;8.640;2024-03-02T16:27:08;0.95;;;0.40;;
46086;SDS011;31824;49.648;8.640;2024-03-02T16:30:10;1.70;;;0.55;;
46086;SDS011;31824;49.648;8.640;2024-03-02T16:33:13;1.58;;;0.50;;
46086;SDS011;31824;49.648;8.640;2024-03-02T16:36:17;0.57;;;0.28;;
46086;SDS011;31824;49.648;8.640;2024-03-02T16:39:20;0.82;;;0.30;;
46086;SDS011;31824;49.648;8.640;2024-03-02T16:42:22;2.95;;;0.40;;
46086;SDS011;31824;49.648;8.640;2024-03-02T16:45:25;1.17;;;0.40;;
46086;SDS011;31824;49.648;8.640;2024-03-02T16:48:27;3.33;;;0.47;;
46086;SDS011;31824;49.648;8.640;2024-03-02T16:51:30;0.82;;;0.30;;
46086;SDS011;31824;49.648;8.640;2024-03-02T16:54:39;1.27;;;0.45;;
46086;SDS011;31824;49.648;8.640;2024-03-02T16:57:41;1.25;;;0.30;;
46086;SDS011;31824;49.648;8.640;2024-03-02T17:00:43;1.90;;;0.30;;
46086;SDS011;31824;49.648;8.640;2024-03-02T17:03:46;0.82;;;0.38;;
46086;SDS011;31824;49.648;8.640;2024-03-02T17:06:49;1.13;;;0.50;;
46086;SDS011;31824;49.648;8.640;2024-03-02T17:09:52;1.50;;;0.40;;
46086;SDS011;31824;49.648;8.640;2024-03-02T17:12:57;2.75;;;0.43;;
46086;SDS011;31824;49.648;8.640;2024-03-02T17:16:01;2.13;;;0.55;;
46086;SDS011;31824;49.648;8.640;2024-03-02T17:19:03;1.83;;;0.50;;
46086;SDS011;31824;49.648;8.640;2024-03-02T17:22:06;1.38;;;0.50;;
46086;SDS011;31824;49.648;8.640;2024-03-02T17:25:08;1.23;;;0.40;;
46086;SDS011;31824;49.648;8.640;2024-03-02T17:28:22;1.05;;;0.45;;
46086;SDS011;31824;49.648;8.640;2024-03-02T17:31:27;0.70;;;0.30;;
46086;SDS011;31824;49.648;8.640;2024-03-02T17:34:31;0.80;;;0.30;;
46086;SDS011;31824;49.648;8.640;2024-03-02T17:37:34;1.70;;;0.45;;
46086;SDS011;31824;49.648;8.640;2024-03-02T17:40:38;1.30;;;0.30;;
46086;SDS011;31824;49.648;8.640;2024-03-02T17:43:40;1.17;;;0.20;;
46086;SDS011;31824;49.648;8.640;2024-03-02T17:46:42;0.55;;;0.30;;
46086;SDS011;31824;49.648;8.640;2024-03-02T17:49:44;0.82;;;0.20;;
46086;SDS011;31824;49.648;8.640;2024-03-02T17:52:47;0.70;;;0.40;;
46086;SDS011;31824;49.648;8.640;2024-03-02T17:55:49;0.95;;;0.30;;
46086;SDS011;31824;49.648;8.640;2024-03-02T17:58:51;1.17;;;0.30;;
46086;SDS011;31824;49.648;8.640;2024-03-02T18:01:53;1.10;;;0.40;;
46086;SDS011;31824;49.648;8.640;2024-03-02T18:04:55;1.20;;;0.47;;
46086;SDS011;31824;49.648;8.640;2024-03-02T18:07:58;1.13;;;0.30;;
46086;SDS011;31824;49.648;8.640;2024-03-02T18:11:00;1.40;;;0.57;;
46086;SDS011;31824;49.648;8.640;2024-03-02T18:14:02;1.80;;;0.60;;
46086;SDS011;31824;49.648;8.640;2024-03-02T18:17:04;2.78;;;0.65;;
46086;SDS011;31824;49.648;8.640;2024-03-02T18:20:06;2.13;;;0.68;;
46086;SDS011;31824;49.648;8.640;2024-03-02T18:23:10;2.17;;;0.70;;
46086;SDS011;31824;49.648;8.640;2024-03-02T18:26:14;3.88;;;1.90;;
46086;SDS011;31824;49.648;8.640;2024-03-02T18:29:15;2.58;;;1.17;;